sensor_id;sensor_type;location;lat;lon;timestamp;P1;durP1;ratioP1;P2;durP2;ratioP2
8297;SDS011;4187;42.778;23.242;2023-10-31T00:00:02;12.77;;;4.20;;
8297;SDS011;4187;42.778;23.242;2023-10-31T00:02:30;4.90;;;3.77;;
8297;SDS011;4187;42.778;23.242;2023-10-31T00:04:58;13.97;;;4.57;;
8297;SDS011;4187;42.778;23.242;2023-10-31T00:07:26;12.60;;;4.10;;
8297;SDS011;4187;42.778;23.242;2023-10-31T00:09:55;10.47;;;4.40;;
8297;SDS011;4187;42.778;23.242;2023-10-31T00:12:22;11.37;;;4.17;;
8297;SDS011;4187;42.778;23.242;2023-10-31T00:14:49;9.73;;;4.17;;
8297;SDS011;4187;42.778;23.242;2023-10-31T00:17:17;11.07;;;3.97;;
8297;SDS011;4187;42.778;23.242;2023-10-31T00:19:45;7.37;;;4.07;;
8297;SDS011;4187;42.778;23.242;2023-10-31T00:22:13;7.50;;;4.07;;
8297;SDS011;4187;42.778;23.242;2023-10-31T00:24:41;6.90;;;4.03;;
8297;SDS011;4187;42.778;23.242;2023-10-31T00:27:10;9.93;;;4.63;;
8297;SDS011;4187;42.778;23.242;2023-10-31T00:29:39;7.93;;;3.87;;
8297;SDS011;4187;42.778;23.242;2023-10-31T00:32:07;8.70;;;4.50;;
8297;SDS011;4187;42.778;23.242;2023-10-31T00:34:35;8.83;;;4.60;;
8297;SDS011;4187;42.778;23.242;2023-10-31T00:37:04;7.23;;;4.37;;
8297;SDS011;4187;42.778;23.242;2023-10-31T00:39:31;9.27;;;4.47;;
8297;SDS011;4187;42.778;23.242;2023-10-31T00:41:59;7.00;;;4.57;;
8297;SDS011;4187;42.778;23.242;2023-10-31T00:44:29;8.50;;;4.17;;
8297;SDS011;4187;42.778;23.242;2023-10-31T00:46:58;9.00;;;4.70;;
8297;SDS011;4187;42.778;23.242;2023-10-31T00:49:26;7.63;;;4.03;;
8297;SDS011;4187;42.778;23.242;2023-10-31T00:51:53;12.87;;;4.43;;
8297;SDS011;4187;42.778;23.242;2023-10-31T00:54:22;11.87;;;4.53;;
8297;SDS011;4187;42.778;23.242;2023-10-31T00:56:50;8.90;;;4.03;;
8297;SDS011;4187;42.778;23.242;2023-10-31T00:59:17;10.73;;;4.30;;
8297;SDS011;4187;42.778;23.242;2023-10-31T01:01:47;8.10;;;3.53;;
8297;SDS011;4187;42.778;23.242;2023-10-31T01:04:15;7.17;;;4.23;;
8297;SDS011;4187;42.778;23.242;2023-10-31T01:06:43;10.77;;;4.70;;
8297;SDS011;4187;42.778;23.242;2023-10-31T01:09:10;7.03;;;4.50;;
8297;SDS011;4187;42.778;23.242;2023-10-31T01:11:39;7.97;;;4.47;;
8297;SDS011;4187;42.778;23.242;2023-10-31T01:14:07;8.70;;;4.33;;
8297;SDS011;4187;42.778;23.242;2023-10-31T01:16:35;7.67;;;4.43;;
8297;SDS011;4187;42.778;23.242;2023-10-31T01:19:04;9.63;;;4.33;;
8297;SDS011;4187;42.778;23.242;2023-10-31T01:21:31;7.70;;;3.73;;
8297;SDS011;4187;42.778;23.242;2023-10-31T01:23:59;9.17;;;4.40;;
8297;SDS011;4187;42.778;23.242;2023-10-31T01:26:27;6.30;;;3.83;;
8297;SDS011;4187;42.778;23.242;2023-10-31T01:28:54;11.67;;;4.47;;
8297;SDS011;4187;42.778;23.242;2023-10-31T01:31:23;8.10;;;3.73;;
8297;SDS011;4187;42.778;23.242;2023-10-31T01:33:50;12.23;;;4.60;;
8297;SDS011;4187;42.778;23.242;2023-10-31T01:36:23;5.73;;;3.60;;
8297;SDS011;4187;42.778;23.242;2023-10-31T01:38:51;10.10;;;4.20;;
8297;SDS011;4187;42.778;23.242;2023-10-31T01:41:19;4.30;;;3.30;;
8297;SDS011;4187;42.778;23.242;2023-10-31T01:43:47;7.33;;;4.50;;
8297;SDS011;4187;42.778;23.242;2023-10-31T01:46:15;6.17;;;3.77;;
8297;SDS011;4187;42.778;23.242;2023-10-31T01:48:42;7.50;;;4.47;;
8297;SDS011;4187;42.778;23.242;2023-10-31T01:51:10;8.83;;;4.50;;
8297;SDS011;4187;42.778;23.242;2023-10-31T01:53:40;10.53;;;5.93;;
8297;SDS011;4187;42.778;23.242;2023-10-31T01:56:08;15.47;;;4.50;;
8297;SDS011;4187;42.778;23.242;2023-10-31T01:58:37;7.47;;;3.73;;
8297;SDS011;4187;42.778;23.242;2023-10-31T02:01:07;7.37;;;4.60;;
8297;SDS011;4187;42.778;23.242;2023-10-31T02:03:35;13.93;;;4.47;;
8297;SDS011;4187;42.778;23.242;2023-10-31T02:06:03;12.33;;;5.43;;
8297;SDS011;4187;42.778;23.242;2023-10-31T02:08:31;14.43;;;5.70;;
8297;SDS011;4187;42.778;23.242;2023-10-31T02:11:00;12.70;;;6.10;;
8297;SDS011;4187;42.778;23.242;2023-10-31T02:13:29;8.93;;;5.20;;
8297;SDS011;4187;42.778;23.242;2023-10-31T02:15:57;10.30;;;5.40;;
8297;SDS011;4187;42.778;23.242;2023-10-31T02:18:24;12.17;;;4.40;;
8297;SDS011;4187;42.778;23.242;2023-10-31T02:20:52;7.80;;;4.37;;
8297;SDS011;4187;42.778;23.242;2023-10-31T02:23:21;5.93;;;4.13;;
8297;SDS011;4187;42.778;23.242;2023-10-31T02:25:49;7.23;;;4.33;;
8297;SDS011;4187;42.778;23.242;2023-10-31T02:28:17;7.73;;;4.03;;
8297;SDS011;4187;42.778;23.242;2023-10-31T02:30:44;6.27;;;3.87;;
8297;SDS011;4187;42.778;23.242;2023-10-31T02:33:12;10.43;;;4.30;;
8297;SDS011;4187;42.778;23.242;2023-10-31T02:35:39;7.63;;;3.67;;
8297;SDS011;4187;42.778;23.242;2023-10-31T02:38:06;8.63;;;4.17;;
8297;SDS011;4187;42.778;23.242;2023-10-31T02:40:36;7.43;;;3.37;;
8297;SDS011;4187;42.778;23.242;2023-10-31T02:43:04;7.60;;;3.83;;
8297;SDS011;4187;42.778;23.242;2023-10-31T02:45:32;8.43;;;4.30;;
8297;SDS011;4187;42.778;23.242;2023-10-31T02:48:00;8.53;;;4.47;;
8297;SDS011;4187;42.778;23.242;2023-10-31T02:50:29;9.07;;;4.50;;
8297;SDS011;4187;42.778;23.242;2023-10-31T02:52:57;9.00;;;4.57;;
8297;SDS011;4187;42.778;23.242;2023-10-31T02:55:24;10.07;;;4.50;;
8297;SDS011;4187;42.778;23.242;2023-10-31T02:57:54;8.67;;;4.07;;
8297;SDS011;4187;42.778;23.242;2023-10-31T03:00:22;8.07;;;3.87;;
8297;SDS011;4187;42.778;23.242;2023-10-31T03:02:49;5.40;;;4.37;;
8297;SDS011;4187;42.778;23.242;2023-10-31T03:05:17;8.40;;;4.73;;
8297;SDS011;4187;42.778;23.242;2023-10-31T03:07:46;6.47;;;4.13;;
8297;SDS011;4187;42.778;23.242;2023-10-31T03:10:13;8.87;;;4.13;;
8297;SDS011;4187;42.778;23.242;2023-10-31T03:12:41;5.83;;;4.30;;
8297;SDS011;4187;42.778;23.242;2023-10-31T03:15:10;11.33;;;6.23;;
8297;SDS011;4187;42.778;23.242;2023-10-31T03:17:38;12.63;;;5.27;;
8297;SDS011;4187;42.778;23.242;2023-10-31T03:20:06;7.80;;;4.97;;
8297;SDS011;4187;42.778;23.242;2023-10-31T03:22:34;10.90;;;4.60;;
8297;SDS011;4187;42.778;23.242;2023-10-31T03:25:01;9.97;;;4.93;;
8297;SDS011;4187;42.778;23.242;2023-10-31T03:27:28;9.70;;;5.30;;
8297;SDS011;4187;42.778;23.242;2023-10-31T03:29:56;7.73;;;4.70;;
8297;SDS011;4187;42.778;23.242;2023-10-31T03:32:25;8.67;;;5.20;;
8297;SDS011;4187;42.778;23.242;2023-10-31T03:34:53;10.57;;;5.17;;
8297;SDS011;4187;42.778;23.242;2023-10-31T03:37:20;10.83;;;5.00;;
8297;SDS011;4187;42.778;23.242;2023-10-31T03:39:48;7.70;;;4.60;;
8297;SDS011;4187;42.778;23.242;2023-10-31T03:42:15;9.10;;;4.40;;
8297;SDS011;4187;42.778;23.242;2023-10-31T03:44:43;9.30;;;4.70;;
8297;SDS011;4187;42.778;23.242;2023-10-31T03:47:11;8.87;;;3.93;;
8297;SDS011;4187;42.778;23.242;2023-10-31T03:49:40;7.00;;;4.77;;
8297;SDS011;4187;42.778;23.242;2023-10-31T03:52:08;8.83;;;4.93;;
8297;SDS011;4187;42.778;23.242;2023-10-31T03:54:35;6.23;;;4.77;;
8297;SDS011;4187;42.778;23.242;2023-10-31T03:57:02;6.67;;;4.67;;
8297;SDS011;4187;42.778;23.242;2023-10-31T03:59:29;9.10;;;5.30;;
8297;SDS011;4187;42.778;23.242;2023-10-31T04:01:55;6.60;;;4.70;;
8297;SDS011;4187;42.778;23.242;2023-10-31T04:04:22;9.43;;;4.40;;
8297;SDS011;4187;42.778;23.242;2023-10-31T04:06:50;5.97;;;4.87;;
8297;SDS011;4187;42.778;23.242;2023-10-31T04:09:16;6.43;;;4.70;;
8297;SDS011;4187;42.778;23.242;2023-10-31T04:11:43;6.10;;;4.77;;
8297;SDS011;4187;42.778;23.242;2023-10-31T04:14:10;10.23;;;5.03;;
8297;SDS011;4187;42.778;23.242;2023-10-31T04:16:38;10.20;;;4.50;;
8297;SDS011;4187;42.778;23.242;2023-10-31T04:19:10;14.00;;;5.60;;
8297;SDS011;4187;42.778;23.242;2023-10-31T04:21:37;9.10;;;5.23;;
8297;SDS011;4187;42.778;23.242;2023-10-31T04:24:06;10.00;;;4.80;;
8297;SDS011;4187;42.778;23.242;2023-10-31T04:26:33;6.47;;;4.73;;
8297;SDS011;4187;42.778;23.242;2023-10-31T04:28:59;8.90;;;6.23;;
8297;SDS011;4187;42.778;23.242;2023-10-31T04:31:26;8.53;;;5.13;;
8297;SDS011;4187;42.778;23.242;2023-10-31T04:33:53;8.90;;;5.10;;
8297;SDS011;4187;42.778;23.242;2023-10-31T04:36:20;8.40;;;4.83;;
8297;SDS011;4187;42.778;23.242;2023-10-31T04:38:46;9.70;;;5.27;;
8297;SDS011;4187;42.778;23.242;2023-10-31T04:41:15;11.23;;;4.70;;
8297;SDS011;4187;42.778;23.242;2023-10-31T04:43:41;7.73;;;4.40;;
8297;SDS011;4187;42.778;23.242;2023-10-31T04:46:08;8.10;;;4.67;;
8297;SDS011;4187;42.778;23.242;2023-10-31T04:48:35;9.17;;;4.93;;
8297;SDS011;4187;42.778;23.242;2023-10-31T04:51:02;7.83;;;4.23;;
8297;SDS011;4187;42.778;23.242;2023-10-31T04:53:29;8.63;;;4.90;;
8297;SDS011;4187;42.778;23.242;2023-10-31T04:55:58;7.73;;;4.70;;
8297;SDS011;4187;42.778;23.242;2023-10-31T04:58:26;13.93;;;5.10;;
8297;SDS011;4187;42.778;23.242;2023-10-31T05:00:53;9.63;;;5.77;;
8297;SDS011;4187;42.778;23.242;2023-10-31T05:03:20;8.63;;;4.83;;
8297;SDS011;4187;42.778;23.242;2023-10-31T05:05:47;6.23;;;5.27;;
8297;SDS011;4187;42.778;23.242;2023-10-31T05:08:13;12.03;;;5.60;;
8297;SDS011;4187;42.778;23.242;2023-10-31T05:10:40;13.73;;;7.37;;
8297;SDS011;4187;42.778;23.242;2023-10-31T05:13:07;12.27;;;6.43;;
8297;SDS011;4187;42.778;23.242;2023-10-31T05:15:35;10.97;;;6.27;;
8297;SDS011;4187;42.778;23.242;2023-10-31T05:18:02;16.87;;;5.77;;
8297;SDS011;4187;42.778;23.242;2023-10-31T05:20:29;11.83;;;6.47;;
8297;SDS011;4187;42.778;23.242;2023-10-31T05:22:55;14.10;;;6.07;;
8297;SDS011;4187;42.778;23.242;2023-10-31T05:25:22;10.27;;;6.57;;
8297;SDS011;4187;42.778;23.242;2023-10-31T05:27:49;13.30;;;6.93;;
8297;SDS011;4187;42.778;23.242;2023-10-31T05:30:17;14.43;;;6.17;;
8297;SDS011;4187;42.778;23.242;2023-10-31T05:32:46;12.23;;;8.07;;
8297;SDS011;4187;42.778;23.242;2023-10-31T05:35:13;11.17;;;5.90;;
8297;SDS011;4187;42.778;23.242;2023-10-31T05:37:40;8.87;;;5.13;;
8297;SDS011;4187;42.778;23.242;2023-10-31T05:40:09;9.97;;;5.97;;
8297;SDS011;4187;42.778;23.242;2023-10-31T05:42:37;8.73;;;5.27;;
8297;SDS011;4187;42.778;23.242;2023-10-31T05:45:04;8.23;;;5.23;;
8297;SDS011;4187;42.778;23.242;2023-10-31T05:47:31;8.70;;;5.97;;
8297;SDS011;4187;42.778;23.242;2023-10-31T05:50:00;10.33;;;5.80;;
8297;SDS011;4187;42.778;23.242;2023-10-31T05:52:27;10.30;;;5.50;;
8297;SDS011;4187;42.778;23.242;2023-10-31T05:54:54;14.17;;;6.20;;
8297;SDS011;4187;42.778;23.242;2023-10-31T05:57:21;20.10;;;6.03;;
8297;SDS011;4187;42.778;23.242;2023-10-31T05:59:48;6.17;;;4.80;;
8297;SDS011;4187;42.778;23.242;2023-10-31T06:02:15;7.43;;;5.03;;
8297;SDS011;4187;42.778;23.242;2023-10-31T06:04:42;8.60;;;4.40;;
8297;SDS011;4187;42.778;23.242;2023-10-31T06:07:11;6.27;;;4.70;;
8297;SDS011;4187;42.778;23.242;2023-10-31T06:09:38;11.50;;;5.00;;
8297;SDS011;4187;42.778;23.242;2023-10-31T06:12:05;15.13;;;6.30;;
8297;SDS011;4187;42.778;23.242;2023-10-31T06:14:32;10.83;;;5.47;;
8297;SDS011;4187;42.778;23.242;2023-10-31T06:16:59;19.17;;;6.53;;
8297;SDS011;4187;42.778;23.242;2023-10-31T06:19:26;17.07;;;6.10;;
8297;SDS011;4187;42.778;23.242;2023-10-31T06:21:53;22.63;;;6.70;;
8297;SDS011;4187;42.778;23.242;2023-10-31T06:24:21;21.30;;;7.40;;
8297;SDS011;4187;42.778;23.242;2023-10-31T06:26:48;30.57;;;10.20;;
8297;SDS011;4187;42.778;23.242;2023-10-31T06:29:15;32.53;;;8.40;;
8297;SDS011;4187;42.778;23.242;2023-10-31T06:31:41;32.43;;;8.93;;
8297;SDS011;4187;42.778;23.242;2023-10-31T06:34:08;44.30;;;9.07;;
8297;SDS011;4187;42.778;23.242;2023-10-31T06:36:35;24.70;;;8.30;;
8297;SDS011;4187;42.778;23.242;2023-10-31T06:39:02;24.73;;;9.07;;
8297;SDS011;4187;42.778;23.242;2023-10-31T06:41:30;25.90;;;7.30;;
8297;SDS011;4187;42.778;23.242;2023-10-31T06:43:57;17.17;;;8.02;;
8297;SDS011;4187;42.778;23.242;2023-10-31T06:46:24;16.65;;;7.72;;
8297;SDS011;4187;42.778;23.242;2023-10-31T06:48:51;27.42;;;13.73;;
8297;SDS011;4187;42.778;23.242;2023-10-31T06:51:17;13.82;;;6.88;;
8297;SDS011;4187;42.778;23.242;2023-10-31T06:53:44;13.02;;;7.05;;
8297;SDS011;4187;42.778;23.242;2023-10-31T06:56:11;12.90;;;6.97;;
8297;SDS011;4187;42.778;23.242;2023-10-31T06:58:39;13.30;;;6.43;;
8297;SDS011;4187;42.778;23.242;2023-10-31T07:01:06;16.40;;;7.03;;
8297;SDS011;4187;42.778;23.242;2023-10-31T07:03:34;9.55;;;7.22;;
8297;SDS011;4187;42.778;23.242;2023-10-31T07:06:01;9.63;;;7.32;;
8297;SDS011;4187;42.778;23.242;2023-10-31T07:08:28;10.07;;;7.07;;
8297;SDS011;4187;42.778;23.242;2023-10-31T07:10:55;11.10;;;8.02;;
8297;SDS011;4187;42.778;23.242;2023-10-31T07:13:22;12.55;;;8.20;;
8297;SDS011;4187;42.778;23.242;2023-10-31T07:15:50;13.80;;;7.47;;
8297;SDS011;4187;42.778;23.242;2023-10-31T07:18:18;11.82;;;8.02;;
8297;SDS011;4187;42.778;23.242;2023-10-31T07:20:45;12.25;;;8.80;;
8297;SDS011;4187;42.778;23.242;2023-10-31T07:23:12;13.82;;;8.60;;
8297;SDS011;4187;42.778;23.242;2023-10-31T07:25:39;14.32;;;8.50;;
8297;SDS011;4187;42.778;23.242;2023-10-31T07:28:05;19.15;;;9.27;;
8297;SDS011;4187;42.778;23.242;2023-10-31T07:30:32;8.80;;;7.90;;
8297;SDS011;4187;42.778;23.242;2023-10-31T07:33:00;16.60;;;8.20;;
8297;SDS011;4187;42.778;23.242;2023-10-31T07:35:27;18.98;;;7.97;;
8297;SDS011;4187;42.778;23.242;2023-10-31T07:37:54;13.40;;;8.13;;
8297;SDS011;4187;42.778;23.242;2023-10-31T07:40:22;16.00;;;8.18;;
8297;SDS011;4187;42.778;23.242;2023-10-31T07:42:49;12.65;;;8.32;;
8297;SDS011;4187;42.778;23.242;2023-10-31T07:45:16;13.60;;;8.40;;
8297;SDS011;4187;42.778;23.242;2023-10-31T07:47:42;13.35;;;8.02;;
8297;SDS011;4187;42.778;23.242;2023-10-31T07:50:11;10.00;;;6.97;;
8297;SDS011;4187;42.778;23.242;2023-10-31T07:52:38;10.82;;;7.82;;
8297;SDS011;4187;42.778;23.242;2023-10-31T07:55:05;10.80;;;8.25;;
8297;SDS011;4187;42.778;23.242;2023-10-31T07:57:32;14.23;;;8.55;;
8297;SDS011;4187;42.778;23.242;2023-10-31T07:59:59;15.15;;;7.85;;
8297;SDS011;4187;42.778;23.242;2023-10-31T08:02:26;12.77;;;7.60;;
8297;SDS011;4187;42.778;23.242;2023-10-31T08:04:53;13.65;;;8.23;;
8297;SDS011;4187;42.778;23.242;2023-10-31T08:07:21;10.48;;;8.25;;
8297;SDS011;4187;42.778;23.242;2023-10-31T08:09:48;8.70;;;7.05;;
8297;SDS011;4187;42.778;23.242;2023-10-31T08:12:15;11.15;;;7.53;;
8297;SDS011;4187;42.778;23.242;2023-10-31T08:14:42;11.68;;;7.75;;
8297;SDS011;4187;42.778;23.242;2023-10-31T08:17:09;14.93;;;7.68;;
8297;SDS011;4187;42.778;23.242;2023-10-31T08:19:36;12.73;;;7.72;;
8297;SDS011;4187;42.778;23.242;2023-10-31T08:22:03;12.43;;;7.68;;
8297;SDS011;4187;42.778;23.242;2023-10-31T08:24:32;13.70;;;7.78;;
8297;SDS011;4187;42.778;23.242;2023-10-31T08:27:01;12.13;;;7.60;;
8297;SDS011;4187;42.778;23.242;2023-10-31T08:29:28;10.75;;;7.32;;
8297;SDS011;4187;42.778;23.242;2023-10-31T08:31:54;13.77;;;8.55;;
8297;SDS011;4187;42.778;23.242;2023-10-31T08:34:21;10.55;;;7.70;;
8297;SDS011;4187;42.778;23.242;2023-10-31T08:36:48;12.15;;;6.68;;
8297;SDS011;4187;42.778;23.242;2023-10-31T08:39:17;10.60;;;6.82;;
8297;SDS011;4187;42.778;23.242;2023-10-31T08:41:55;12.88;;;8.50;;
8297;SDS011;4187;42.778;23.242;2023-10-31T08:44:22;11.48;;;7.35;;
8297;SDS011;4187;42.778;23.242;2023-10-31T08:46:49;13.77;;;7.47;;
8297;SDS011;4187;42.778;23.242;2023-10-31T08:49:16;13.25;;;7.68;;
8297;SDS011;4187;42.778;23.242;2023-10-31T08:51:44;10.05;;;7.35;;
8297;SDS011;4187;42.778;23.242;2023-10-31T08:54:10;10.82;;;8.15;;
8297;SDS011;4187;42.778;23.242;2023-10-31T08:56:37;8.90;;;6.43;;
8297;SDS011;4187;42.778;23.242;2023-10-31T08:59:05;12.25;;;7.22;;
8297;SDS011;4187;42.778;23.242;2023-10-31T09:01:32;12.23;;;6.93;;
8297;SDS011;4187;42.778;23.242;2023-10-31T09:03:59;12.55;;;6.68;;
8297;SDS011;4187;42.778;23.242;2023-10-31T09:06:27;11.20;;;7.53;;
8297;SDS011;4187;42.778;23.242;2023-10-31T09:08:53;14.85;;;6.72;;
8297;SDS011;4187;42.778;23.242;2023-10-31T09:11:20;12.07;;;7.28;;
8297;SDS011;4187;42.778;23.242;2023-10-31T09:13:47;15.95;;;8.93;;
8297;SDS011;4187;42.778;23.242;2023-10-31T09:16:15;12.50;;;7.80;;
8297;SDS011;4187;42.778;23.242;2023-10-31T09:18:42;14.75;;;9.07;;
8297;SDS011;4187;42.778;23.242;2023-10-31T09:21:10;15.40;;;7.82;;
8297;SDS011;4187;42.778;23.242;2023-10-31T09:23:37;18.73;;;8.38;;
8297;SDS011;4187;42.778;23.242;2023-10-31T09:26:06;16.60;;;7.80;;
8297;SDS011;4187;42.778;23.242;2023-10-31T09:28:33;15.43;;;8.35;;
8297;SDS011;4187;42.778;23.242;2023-10-31T09:31:01;17.50;;;7.53;;
8297;SDS011;4187;42.778;23.242;2023-10-31T09:33:30;10.52;;;7.28;;
8297;SDS011;4187;42.778;23.242;2023-10-31T09:35:57;16.08;;;7.75;;
8297;SDS011;4187;42.778;23.242;2023-10-31T09:38:24;15.98;;;7.75;;
8297;SDS011;4187;42.778;23.242;2023-10-31T09:40:52;10.85;;;7.18;;
8297;SDS011;4187;42.778;23.242;2023-10-31T09:43:20;16.30;;;7.38;;
8297;SDS011;4187;42.778;23.242;2023-10-31T09:45:46;15.63;;;6.90;;
8297;SDS011;4187;42.778;23.242;2023-10-31T09:48:14;10.45;;;7.32;;
8297;SDS011;4187;42.778;23.242;2023-10-31T09:50:43;7.80;;;5.80;;
8297;SDS011;4187;42.778;23.242;2023-10-31T09:53:10;10.38;;;6.40;;
8297;SDS011;4187;42.778;23.242;2023-10-31T09:55:38;9.50;;;5.50;;
8297;SDS011;4187;42.778;23.242;2023-10-31T09:58:05;9.23;;;5.28;;
8297;SDS011;4187;42.778;23.242;2023-10-31T10:00:32;11.75;;;6.90;;
8297;SDS011;4187;42.778;23.242;2023-10-31T10:02:59;8.15;;;5.35;;
8297;SDS011;4187;42.778;23.242;2023-10-31T10:05:26;13.32;;;5.97;;
8297;SDS011;4187;42.778;23.242;2023-10-31T10:07:56;12.70;;;5.35;;
8297;SDS011;4187;42.778;23.242;2023-10-31T10:10:23;8.48;;;5.38;;
8297;SDS011;4187;42.778;23.242;2023-10-31T10:12:51;11.52;;;5.32;;
8297;SDS011;4187;42.778;23.242;2023-10-31T10:15:18;15.70;;;9.40;;
8297;SDS011;4187;42.778;23.242;2023-10-31T10:17:48;10.77;;;6.95;;
8297;SDS011;4187;42.778;23.242;2023-10-31T10:20:15;10.77;;;5.75;;
8297;SDS011;4187;42.778;23.242;2023-10-31T10:22:43;10.45;;;6.18;;
8297;SDS011;4187;42.778;23.242;2023-10-31T10:25:12;11.60;;;5.50;;
8297;SDS011;4187;42.778;23.242;2023-10-31T10:27:40;11.13;;;7.15;;
8297;SDS011;4187;42.778;23.242;2023-10-31T10:30:08;10.63;;;6.60;;
8297;SDS011;4187;42.778;23.242;2023-10-31T10:32:35;10.98;;;5.53;;
8297;SDS011;4187;42.778;23.242;2023-10-31T10:35:02;7.65;;;5.25;;
8297;SDS011;4187;42.778;23.242;2023-10-31T10:37:30;10.80;;;6.63;;
8297;SDS011;4187;42.778;23.242;2023-10-31T10:39:57;9.15;;;5.85;;
8297;SDS011;4187;42.778;23.242;2023-10-31T10:42:28;7.30;;;4.57;;
8297;SDS011;4187;42.778;23.242;2023-10-31T10:45:01;5.95;;;4.22;;
8297;SDS011;4187;42.778;23.242;2023-10-31T10:47:29;6.15;;;4.80;;
8297;SDS011;4187;42.778;23.242;2023-10-31T10:49:58;6.60;;;4.00;;
8297;SDS011;4187;42.778;23.242;2023-10-31T10:52:28;6.63;;;4.35;;
8297;SDS011;4187;42.778;23.242;2023-10-31T10:55:00;8.75;;;4.05;;
8297;SDS011;4187;42.778;23.242;2023-10-31T10:57:37;6.82;;;3.72;;
8297;SDS011;4187;42.778;23.242;2023-10-31T11:00:07;8.57;;;3.95;;
8297;SDS011;4187;42.778;23.242;2023-10-31T11:02:38;5.20;;;3.08;;
8297;SDS011;4187;42.778;23.242;2023-10-31T11:05:06;6.90;;;3.47;;
8297;SDS011;4187;42.778;23.242;2023-10-31T11:07:33;5.78;;;3.03;;
8297;SDS011;4187;42.778;23.242;2023-10-31T11:10:01;5.60;;;3.10;;
8297;SDS011;4187;42.778;23.242;2023-10-31T11:12:30;8.63;;;2.97;;
8297;SDS011;4187;42.778;23.242;2023-10-31T11:14:59;6.55;;;2.83;;
8297;SDS011;4187;42.778;23.242;2023-10-31T11:17:28;5.00;;;3.10;;
8297;SDS011;4187;42.778;23.242;2023-10-31T11:19:59;6.80;;;2.85;;
8297;SDS011;4187;42.778;23.242;2023-10-31T11:22:36;5.07;;;2.83;;
8297;SDS011;4187;42.778;23.242;2023-10-31T11:25:04;9.48;;;4.10;;
8297;SDS011;4187;42.778;23.242;2023-10-31T11:27:33;6.90;;;3.20;;
8297;SDS011;4187;42.778;23.242;2023-10-31T11:30:02;7.35;;;4.55;;
8297;SDS011;4187;42.778;23.242;2023-10-31T11:32:31;9.60;;;5.35;;
8297;SDS011;4187;42.778;23.242;2023-10-31T11:34:59;6.35;;;2.97;;
8297;SDS011;4187;42.778;23.242;2023-10-31T11:37:27;7.57;;;4.10;;
8297;SDS011;4187;42.778;23.242;2023-10-31T11:40:14;6.47;;;2.90;;
8297;SDS011;4187;42.778;23.242;2023-10-31T11:42:49;3.53;;;2.55;;
8297;SDS011;4187;42.778;23.242;2023-10-31T11:45:29;3.78;;;2.92;;
8297;SDS011;4187;42.778;23.242;2023-10-31T11:48:00;4.43;;;2.95;;
8297;SDS011;4187;42.778;23.242;2023-10-31T11:50:29;3.15;;;2.70;;
8297;SDS011;4187;42.778;23.242;2023-10-31T11:53:03;5.20;;;2.90;;
8297;SDS011;4187;42.778;23.242;2023-10-31T11:55:32;10.80;;;3.50;;
8297;SDS011;4187;42.778;23.242;2023-10-31T11:58:13;8.35;;;3.60;;
8297;SDS011;4187;42.778;23.242;2023-10-31T12:00:43;6.13;;;3.50;;
8297;SDS011;4187;42.778;23.242;2023-10-31T12:03:10;7.72;;;4.72;;
8297;SDS011;4187;42.778;23.242;2023-10-31T12:05:37;6.35;;;4.18;;
8297;SDS011;4187;42.778;23.242;2023-10-31T12:08:04;8.05;;;3.90;;
8297;SDS011;4187;42.778;23.242;2023-10-31T12:10:31;6.13;;;4.03;;
8297;SDS011;4187;42.778;23.242;2023-10-31T12:12:58;8.98;;;4.22;;
8297;SDS011;4187;42.778;23.242;2023-10-31T12:15:25;5.15;;;3.53;;
8297;SDS011;4187;42.778;23.242;2023-10-31T12:17:56;9.13;;;4.78;;
8297;SDS011;4187;42.778;23.242;2023-10-31T12:20:25;5.43;;;3.53;;
8297;SDS011;4187;42.778;23.242;2023-10-31T12:23:01;7.22;;;3.08;;
8297;SDS011;4187;42.778;23.242;2023-10-31T12:25:29;8.55;;;3.05;;
8297;SDS011;4187;42.778;23.242;2023-10-31T12:28:00;6.57;;;3.00;;
8297;SDS011;4187;42.778;23.242;2023-10-31T12:30:27;6.13;;;2.83;;
8297;SDS011;4187;42.778;23.242;2023-10-31T12:32:55;7.53;;;2.97;;
8297;SDS011;4187;42.778;23.242;2023-10-31T12:35:23;9.90;;;2.75;;
8297;SDS011;4187;42.778;23.242;2023-10-31T12:37:52;10.90;;;2.90;;
8297;SDS011;4187;42.778;23.242;2023-10-31T12:40:20;6.28;;;2.50;;
8297;SDS011;4187;42.778;23.242;2023-10-31T12:42:49;4.38;;;2.63;;
8297;SDS011;4187;42.778;23.242;2023-10-31T12:45:17;8.73;;;2.80;;
8297;SDS011;4187;42.778;23.242;2023-10-31T12:47:44;8.57;;;3.60;;
8297;SDS011;4187;42.778;23.242;2023-10-31T12:50:13;5.43;;;2.50;;
8297;SDS011;4187;42.778;23.242;2023-10-31T12:52:45;6.28;;;2.53;;
8297;SDS011;4187;42.778;23.242;2023-10-31T12:55:16;4.28;;;2.40;;
8297;SDS011;4187;42.778;23.242;2023-10-31T12:57:44;5.80;;;2.65;;
8297;SDS011;4187;42.778;23.242;2023-10-31T13:00:12;7.65;;;2.33;;
8297;SDS011;4187;42.778;23.242;2023-10-31T13:02:41;5.93;;;2.72;;
8297;SDS011;4187;42.778;23.242;2023-10-31T13:05:10;6.13;;;2.72;;
8297;SDS011;4187;42.778;23.242;2023-10-31T13:07:40;5.32;;;2.60;;
8297;SDS011;4187;42.778;23.242;2023-10-31T13:10:18;7.28;;;2.90;;
8297;SDS011;4187;42.778;23.242;2023-10-31T13:12:46;5.85;;;2.30;;
8297;SDS011;4187;42.778;23.242;2023-10-31T13:15:13;4.90;;;2.38;;
8297;SDS011;4187;42.778;23.242;2023-10-31T13:17:40;4.88;;;2.67;;
8297;SDS011;4187;42.778;23.242;2023-10-31T13:20:09;6.43;;;2.40;;
8297;SDS011;4187;42.778;23.242;2023-10-31T13:22:36;6.15;;;2.20;;
8297;SDS011;4187;42.778;23.242;2023-10-31T13:25:05;8.68;;;2.83;;
8297;SDS011;4187;42.778;23.242;2023-10-31T13:27:35;8.02;;;2.58;;
8297;SDS011;4187;42.778;23.242;2023-10-31T13:30:03;5.72;;;2.50;;
8297;SDS011;4187;42.778;23.242;2023-10-31T13:32:30;4.72;;;2.15;;
8297;SDS011;4187;42.778;23.242;2023-10-31T13:34:57;9.18;;;3.03;;
8297;SDS011;4187;42.778;23.242;2023-10-31T13:37:24;7.68;;;2.72;;
8297;SDS011;4187;42.778;23.242;2023-10-31T13:39:51;4.65;;;2.35;;
8297;SDS011;4187;42.778;23.242;2023-10-31T13:42:19;8.13;;;3.45;;
8297;SDS011;4187;42.778;23.242;2023-10-31T13:44:46;4.55;;;2.60;;
8297;SDS011;4187;42.778;23.242;2023-10-31T13:47:13;7.13;;;3.00;;
8297;SDS011;4187;42.778;23.242;2023-10-31T13:49:40;4.50;;;2.85;;
8297;SDS011;4187;42.778;23.242;2023-10-31T13:52:07;5.20;;;2.58;;
8297;SDS011;4187;42.778;23.242;2023-10-31T13:54:34;6.68;;;2.63;;
8297;SDS011;4187;42.778;23.242;2023-10-31T13:57:01;4.57;;;2.83;;
8297;SDS011;4187;42.778;23.242;2023-10-31T13:59:30;7.25;;;3.40;;
8297;SDS011;4187;42.778;23.242;2023-10-31T14:01:57;6.13;;;2.90;;
8297;SDS011;4187;42.778;23.242;2023-10-31T14:04:23;7.25;;;2.90;;
8297;SDS011;4187;42.778;23.242;2023-10-31T14:06:50;5.80;;;3.15;;
8297;SDS011;4187;42.778;23.242;2023-10-31T14:09:17;7.72;;;3.13;;
8297;SDS011;4187;42.778;23.242;2023-10-31T14:11:44;5.05;;;2.95;;
8297;SDS011;4187;42.778;23.242;2023-10-31T14:14:11;5.50;;;2.63;;
8297;SDS011;4187;42.778;23.242;2023-10-31T14:16:42;6.00;;;3.47;;
8297;SDS011;4187;42.778;23.242;2023-10-31T14:19:09;6.90;;;3.40;;
8297;SDS011;4187;42.778;23.242;2023-10-31T14:21:37;5.80;;;2.80;;
8297;SDS011;4187;42.778;23.242;2023-10-31T14:24:05;6.75;;;2.67;;
8297;SDS011;4187;42.778;23.242;2023-10-31T14:26:33;10.65;;;7.05;;
8297;SDS011;4187;42.778;23.242;2023-10-31T14:29:02;8.93;;;4.38;;
8297;SDS011;4187;42.778;23.242;2023-10-31T14:31:29;8.95;;;3.97;;
8297;SDS011;4187;42.778;23.242;2023-10-31T14:33:57;7.55;;;4.28;;
8297;SDS011;4187;42.778;23.242;2023-10-31T14:36:24;20.88;;;13.88;;
8297;SDS011;4187;42.778;23.242;2023-10-31T14:38:51;11.10;;;5.47;;
8297;SDS011;4187;42.778;23.242;2023-10-31T14:41:17;25.65;;;10.73;;
8297;SDS011;4187;42.778;23.242;2023-10-31T14:43:44;22.35;;;11.70;;
8297;SDS011;4187;42.778;23.242;2023-10-31T14:46:11;23.95;;;13.00;;
8297;SDS011;4187;42.778;23.242;2023-10-31T14:48:38;18.00;;;11.88;;
8297;SDS011;4187;42.778;23.242;2023-10-31T14:51:06;16.00;;;10.77;;
8297;SDS011;4187;42.778;23.242;2023-10-31T14:53:33;20.95;;;12.25;;
8297;SDS011;4187;42.778;23.242;2023-10-31T14:56:00;21.98;;;14.32;;
8297;SDS011;4187;42.778;23.242;2023-10-31T14:58:28;86.20;;;57.13;;